sensor_id;sensor_type;location;lat;lon;timestamp;pressure;altitude;pressure_sealevel;temperature;humidity
4570;BME280;2297;51.442;6.996;2023-02-28T00:00:11;101693.69;;;4.20;38.63
4570;BME280;2297;51.442;6.996;2023-02-28T00:02:39;101690.09;;;4.17;38.51
4570;BME280;2297;51.442;6.996;2023-02-28T00:05:07;101690.03;;;4.13;38.52
4570;BME280;2297;51.442;6.996;2023-02-28T00:07:35;101689.84;;;4.07;38.82
4570;BME280;2297;51.442;6.996;2023-02-28T00:10:05;101689.88;;;4.09;38.58
4570;BME280;2297;51.442;6.996;2023-02-28T00:12:32;101690.81;;;4.11;38.54
4570;BME280;2297;51.442;6.996;2023-02-28T00:14:59;101683.84;;;4.11;38.33
4570;BME280;2297;51.442;6.996;2023-02-28T00:17:26;101688.97;;;4.07;38.48
4570;BME280;2297;51.442;6.996;2023-02-28T00:19:52;101700.22;;;4.04;38.32
4570;BME280;2297;51.442;6.996;2023-02-28T00:22:20;101692.38;;;4.04;38.32
4570;BME280;2297;51.442;6.996;2023-02-28T00:24:47;101689.59;;;3.98;38.33
4570;BME280;2297;51.442;6.996;2023-02-28T00:27:15;101691.25;;;3.96;38.40
4570;BME280;2297;51.442;6.996;2023-02-28T00:29:42;101693.03;;;3.97;38.54
4570;BME280;2297;51.442;6.996;2023-02-28T00:32:08;101693.94;;;3.97;38.39
4570;BME280;2297;51.442;6.996;2023-02-28T00:34:35;101693.22;;;4.03;38.38
4570;BME280;2297;51.442;6.996;2023-02-28T00:37:03;101695.75;;;4.00;38.33
4570;BME280;2297;51.442;6.996;2023-02-28T00:39:31;101695.69;;;3.98;38.38
4570;BME280;2297;51.442;6.996;2023-02-28T00:41:57;101698.41;;;4.02;38.47
4570;BME280;2297;51.442;6.996;2023-02-28T00:44:25;101687.91;;;4.00;38.32
4570;BME280;2297;51.442;6.996;2023-02-28T00:46:52;101695.59;;;3.95;38.45
4570;BME280;2297;51.442;6.996;2023-02-28T00:49:19;101691.09;;;3.90;38.43
4570;BME280;2297;51.442;6.996;2023-02-28T00:51:46;101699.00;;;3.93;38.47
4570;BME280;2297;51.442;6.996;2023-02-28T00:54:12;101696.47;;;3.96;38.31
4570;BME280;2297;51.442;6.996;2023-02-28T00:56:39;101692.94;;;3.94;38.35
4570;BME280;2297;51.442;6.996;2023-02-28T00:59:06;101703.34;;;3.91;38.56
4570;BME280;2297;51.442;6.996;2023-02-28T01:01:34;101708.56;;;3.91;38.58
4570;BME280;2297;51.442;6.996;2023-02-28T01:04:01;101706.00;;;3.92;38.63
4570;BME280;2297;51.442;6.996;2023-02-28T01:06:28;101708.56;;;3.91;38.55
4570;BME280;2297;51.442;6.996;2023-02-28T01:08:55;101709.22;;;3.84;38.63
4570;BME280;2297;51.442;6.996;2023-02-28T01:11:21;101706.50;;;3.80;38.79
4570;BME280;2297;51.442;6.996;2023-02-28T01:13:48;101705.69;;;3.81;38.64
4570;BME280;2297;51.442;6.996;2023-02-28T01:16:14;101713.53;;;3.81;38.84
4570;BME280;2297;51.442;6.996;2023-02-28T01:18:43;101709.97;;;3.79;38.85
4570;BME280;2297;51.442;6.996;2023-02-28T01:21:11;101706.22;;;3.71;38.93
4570;BME280;2297;51.442;6.996;2023-02-28T01:23:38;101711.28;;;3.67;39.03
4570;BME280;2297;51.442;6.996;2023-02-28T01:26:06;101705.25;;;3.69;39.01
4570;BME280;2297;51.442;6.996;2023-02-28T01:28:33;101698.25;;;3.68;39.11
4570;BME280;2297;51.442;6.996;2023-02-28T01:31:01;101702.75;;;3.72;39.07
4570;BME280;2297;51.442;6.996;2023-02-28T01:33:27;101706.22;;;3.71;38.93
4570;BME280;2297;51.442;6.996;2023-02-28T01:35:59;101707.13;;;3.73;38.92
4570;BME280;2297;51.442;6.996;2023-02-28T01:38:26;101707.88;;;3.69;39.08
4570;BME280;2297;51.442;6.996;2023-02-28T01:40:53;101704.38;;;3.69;39.12
4570;BME280;2297;51.442;6.996;2023-02-28T01:43:22;101701.63;;;3.64;39.04
4570;BME280;2297;51.442;6.996;2023-02-28T01:45:49;101703.13;;;3.56;39.24
4570;BME280;2297;51.442;6.996;2023-02-28T01:48:16;101696.88;;;3.51;39.34
4570;BME280;2297;51.442;6.996;2023-02-28T01:50:45;101703.69;;;3.45;39.48
4570;BME280;2297;51.442;6.996;2023-02-28T01:53:17;101698.44;;;3.45;39.43
4570;BME280;2297;51.442;6.996;2023-02-28T01:55:47;101694.19;;;3.47;39.55
4570;BME280;2297;51.442;6.996;2023-02-28T01:58:15;101692.63;;;3.54;39.48
4570;BME280;2297;51.442;6.996;2023-02-28T02:00:42;101695.00;;;3.46;39.40
4570;BME280;2297;51.442;6.996;2023-02-28T02:03:11;101682.78;;;3.45;39.41
4570;BME280;2297;51.442;6.996;2023-02-28T02:05:39;101684.38;;;3.40;39.71
4570;BME280;2297;51.442;6.996;2023-02-28T02:08:09;101680.75;;;3.35;39.57
4570;BME280;2297;51.442;6.996;2023-02-28T02:10:41;101680.56;;;3.29;39.62
4570;BME280;2297;51.442;6.996;2023-02-28T02:13:18;101677.94;;;3.29;39.86
4570;BME280;2297;51.442;6.996;2023-02-28T02:15:56;101666.53;;;3.27;39.86
4570;BME280;2297;51.442;6.996;2023-02-28T02:18:32;101666.47;;;3.24;39.94
4570;BME280;2297;51.442;6.996;2023-02-28T02:24:46;101663.03;;;3.25;40.05
4570;BME280;2297;51.442;6.996;2023-02-28T02:27:25;101657.78;;;3.25;39.95
4570;BME280;2297;51.442;6.996;2023-02-28T02:30:12;101655.22;;;3.26;39.92
4570;BME280;2297;51.442;6.996;2023-02-28T02:32:54;101658.66;;;3.25;39.94
4570;BME280;2297;51.442;6.996;2023-02-28T02:35:34;101664.69;;;3.23;39.78
4570;BME280;2297;51.442;6.996;2023-02-28T02:38:10;101662.72;;;3.15;39.83
4570;BME280;2297;51.442;6.996;2023-02-28T02:40:44;101658.34;;;3.14;39.78
4570;BME280;2297;51.442;6.996;2023-02-28T02:43:17;101665.25;;;3.12;39.80
4570;BME280;2297;51.442;6.996;2023-02-28T02:45:49;101666.75;;;3.06;39.94
4570;BME280;2297;51.442;6.996;2023-02-28T02:48:21;101661.41;;;3.01;40.07
4570;BME280;2297;51.442;6.996;2023-02-28T02:50:54;101662.34;;;3.03;40.05
4570;BME280;2297;51.442;6.996;2023-02-28T02:53:24;101664.09;;;3.04;39.87
4570;BME280;2297;51.442;6.996;2023-02-28T02:55:54;101664.88;;;3.02;39.96
4570;BME280;2297;51.442;6.996;2023-02-28T02:58:25;101668.13;;;2.93;39.85
4570;BME280;2297;51.442;6.996;2023-02-28T03:00:57;101665.47;;;2.91;39.95
4570;BME280;2297;51.442;6.996;2023-02-28T03:03:26;101669.00;;;2.93;39.93
4570;BME280;2297;51.442;6.996;2023-02-28T03:05:57;101672.50;;;2.94;39.83
4570;BME280;2297;51.442;6.996;2023-02-28T03:08:25;101667.28;;;2.94;39.62
4570;BME280;2297;51.442;6.996;2023-02-28T03:10:56;101668.16;;;2.94;39.68
4570;BME280;2297;51.442;6.996;2023-02-28T03:13:44;101661.25;;;2.96;39.50
4570;BME280;2297;51.442;6.996;2023-02-28T03:16:31;101670.81;;;2.96;39.42
4570;BME280;2297;51.442;6.996;2023-02-28T03:19:06;101656.63;;;2.88;39.35
4570;BME280;2297;51.442;6.996;2023-02-28T03:21:44;101661.75;;;2.85;39.35
4570;BME280;2297;51.442;6.996;2023-02-28T03:24:19;101653.06;;;2.86;39.14
4570;BME280;2297;51.442;6.996;2023-02-28T03:26:50;101656.72;;;2.91;39.21
4570;BME280;2297;51.442;6.996;2023-02-28T03:29:25;101657.41;;;2.85;39.09
4570;BME280;2297;51.442;6.996;2023-02-28T03:31:58;101655.59;;;2.83;39.28
4570;BME280;2297;51.442;6.996;2023-02-28T03:34:31;101664.25;;;2.81;39.02
4570;BME280;2297;51.442;6.996;2023-02-28T03:37:04;101665.94;;;2.79;38.99
4570;BME280;2297;51.442;6.996;2023-02-28T03:39:36;101658.91;;;2.77;39.03
4570;BME280;2297;51.442;6.996;2023-02-28T03:42:07;101657.16;;;2.77;39.00
4570;BME280;2297;51.442;6.996;2023-02-28T03:44:38;101664.78;;;2.71;38.75
4570;BME280;2297;51.442;6.996;2023-02-28T03:47:10;101667.34;;;2.70;38.97
4570;BME280;2297;51.442;6.996;2023-02-28T03:49:42;101669.06;;;2.69;38.94
4570;BME280;2297;51.442;6.996;2023-02-28T03:52:12;101673.28;;;2.65;38.87
4570;BME280;2297;51.442;6.996;2023-02-28T03:54:42;101674.13;;;2.64;38.71
4570;BME280;2297;51.442;6.996;2023-02-28T03:57:12;101666.47;;;2.69;38.75
4570;BME280;2297;51.442;6.996;2023-02-28T03:59:44;101670.78;;;2.69;38.71
4570;BME280;2297;51.442;6.996;2023-02-28T04:05:20;101673.50;;;2.72;38.72
4570;BME280;2297;51.442;6.996;2023-02-28T04:07:48;101673.34;;;2.67;38.72
4570;BME280;2297;51.442;6.996;2023-02-28T04:10:15;101667.16;;;2.63;38.85
4570;BME280;2297;51.442;6.996;2023-02-28T04:12:42;101666.91;;;2.56;38.79
4570;BME280;2297;51.442;6.996;2023-02-28T04:15:09;101667.56;;;2.50;38.90
4570;BME280;2297;51.442;6.996;2023-02-28T04:17:36;101671.91;;;2.50;38.94
4570;BME280;2297;51.442;6.996;2023-02-28T04:20:04;101667.50;;;2.48;39.28
4570;BME280;2297;51.442;6.996;2023-02-28T04:22:35;101671.84;;;2.48;38.94
4570;BME280;2297;51.442;6.996;2023-02-28T04:25:04;101673.72;;;2.52;39.09
4570;BME280;2297;51.442;6.996;2023-02-28T04:27:32;101670.13;;;2.48;39.01
4570;BME280;2297;51.442;6.996;2023-02-28T04:29:58;101676.28;;;2.51;38.93
4570;BME280;2297;51.442;6.996;2023-02-28T04:32:25;101675.38;;;2.50;38.92
4570;BME280;2297;51.442;6.996;2023-02-28T04:34:51;101678.84;;;2.49;38.88
4570;BME280;2297;51.442;6.996;2023-02-28T04:37:18;101677.94;;;2.48;38.72
4570;BME280;2297;51.442;6.996;2023-02-28T04:39:44;101683.06;;;2.45;38.80
4570;BME280;2297;51.442;6.996;2023-02-28T04:42:13;101684.72;;;2.43;38.71
4570;BME280;2297;51.442;6.996;2023-02-28T04:44:39;101681.19;;;2.41;38.90
4570;BME280;2297;51.442;6.996;2023-02-28T04:47:06;101687.28;;;2.42;38.87
4570;BME280;2297;51.442;6.996;2023-02-28T04:49:33;101689.06;;;2.43;38.94
4570;BME280;2297;51.442;6.996;2023-02-28T04:51:59;101692.41;;;2.39;39.00
4570;BME280;2297;51.442;6.996;2023-02-28T04:54:26;101688.81;;;2.37;38.94
4570;BME280;2297;51.442;6.996;2023-02-28T04:56:53;101694.81;;;2.34;39.00
4570;BME280;2297;51.442;6.996;2023-02-28T04:59:21;101688.78;;;2.35;39.04
4570;BME280;2297;51.442;6.996;2023-02-28T05:01:48;101683.53;;;2.34;38.95
4570;BME280;2297;51.442;6.996;2023-02-28T05:04:16;101682.41;;;2.27;38.85
4570;BME280;2297;51.442;6.996;2023-02-28T05:06:43;101692.63;;;2.21;39.21
4570;BME280;2297;51.442;6.996;2023-02-28T05:09:09;101685.75;;;2.23;39.28
4570;BME280;2297;51.442;6.996;2023-02-28T05:11:37;101692.75;;;2.24;39.34
4570;BME280;2297;51.442;6.996;2023-02-28T05:14:06;101694.34;;;2.20;39.18
4570;BME280;2297;51.442;6.996;2023-02-28T05:16:34;101693.66;;;2.26;39.28
4570;BME280;2297;51.442;6.996;2023-02-28T05:19:01;101693.72;;;2.27;39.03
4570;BME280;2297;51.442;6.996;2023-02-28T05:21:49;101700.72;;;2.28;39.08
4570;BME280;2297;51.442;6.996;2023-02-28T05:24:17;101699.72;;;2.25;39.17
4570;BME280;2297;51.442;6.996;2023-02-28T05:26:48;101697.84;;;2.21;38.98
4570;BME280;2297;51.442;6.996;2023-02-28T05:29:15;101709.94;;;2.19;39.16
4570;BME280;2297;51.442;6.996;2023-02-28T05:31:43;101698.69;;;2.20;39.15
4570;BME280;2297;51.442;6.996;2023-02-28T05:34:10;101701.31;;;2.20;39.41
4570;BME280;2297;51.442;6.996;2023-02-28T05:36:38;101704.69;;;2.17;39.20
4570;BME280;2297;51.442;6.996;2023-02-28T05:39:05;101704.59;;;2.15;39.34
4570;BME280;2297;51.442;6.996;2023-02-28T05:41:32;101704.50;;;2.12;39.47
4570;BME280;2297;51.442;6.996;2023-02-28T05:43:59;101710.72;;;2.16;39.18
4570;BME280;2297;51.442;6.996;2023-02-28T05:46:26;101709.72;;;2.12;39.18
4570;BME280;2297;51.442;6.996;2023-02-28T05:48:54;101710.53;;;2.11;39.28
4570;BME280;2297;51.442;6.996;2023-02-28T05:51:23;101717.47;;;2.11;39.29
4570;BME280;2297;51.442;6.996;2023-02-28T05:53:49;101714.59;;;2.03;39.38
4570;BME280;2297;51.442;6.996;2023-02-28T05:56:16;101718.03;;;2.02;39.34
4570;BME280;2297;51.442;6.996;2023-02-28T05:58:43;101720.63;;;2.02;39.52
4570;BME280;2297;51.442;6.996;2023-02-28T06:01:20;101720.94;;;1.87;39.66
4570;BME280;2297;51.442;6.996;2023-02-28T06:03:48;101722.78;;;1.90;39.76
4570;BME280;2297;51.442;6.996;2023-02-28T06:06:16;101721.25;;;1.95;39.56
4570;BME280;2297;51.442;6.996;2023-02-28T06:08:42;101726.69;;;2.01;39.36
4570;BME280;2297;51.442;6.996;2023-02-28T06:11:10;101726.59;;;2.00;39.42
4570;BME280;2297;51.442;6.996;2023-02-28T06:13:36;101727.13;;;1.89;39.38
4570;BME280;2297;51.442;6.996;2023-02-28T06:16:03;101735.66;;;1.85;39.98
4570;BME280;2297;51.442;6.996;2023-02-28T06:18:32;101734.66;;;1.81;39.97
4570;BME280;2297;51.442;6.996;2023-02-28T06:20:59;101732.16;;;1.85;40.50
4570;BME280;2297;51.442;6.996;2023-02-28T06:23:27;101745.28;;;1.88;40.04
4570;BME280;2297;51.442;6.996;2023-02-28T06:25:54;101747.84;;;1.86;39.67
4570;BME280;2297;51.442;6.996;2023-02-28T06:28:23;101746.13;;;1.87;40.19
4570;BME280;2297;51.442;6.996;2023-02-28T06:30:50;101747.88;;;1.88;40.34
4570;BME280;2297;51.442;6.996;2023-02-28T06:33:16;101750.50;;;1.88;39.80
4570;BME280;2297;51.442;6.996;2023-02-28T06:35:43;101746.13;;;1.87;39.74
4570;BME280;2297;51.442;6.996;2023-02-28T06:38:10;101750.34;;;1.83;40.51
4570;BME280;2297;51.442;6.996;2023-02-28T06:40:38;101752.28;;;1.89;40.00
4570;BME280;2297;51.442;6.996;2023-02-28T06:43:05;101750.63;;;1.91;40.09
4570;BME280;2297;51.442;6.996;2023-02-28T06:45:32;101753.19;;;1.89;40.23
4570;BME280;2297;51.442;6.996;2023-02-28T06:47:58;101750.84;;;1.97;39.95
4570;BME280;2297;51.442;6.996;2023-02-28T06:50:25;101750.97;;;2.00;39.71
4570;BME280;2297;51.442;6.996;2023-02-28T06:52:54;101754.41;;;1.99;39.46
4570;BME280;2297;51.442;6.996;2023-02-28T06:55:21;101752.75;;;2.01;39.23
4570;BME280;2297;51.442;6.996;2023-02-28T06:57:49;101755.94;;;1.94;39.63
4570;BME280;2297;51.442;6.996;2023-02-28T07:00:16;101762.03;;;1.94;39.72
4570;BME280;2297;51.442;6.996;2023-02-28T07:02:43;101754.06;;;1.90;40.27
4570;BME280;2297;51.442;6.996;2023-02-28T07:05:09;101762.03;;;1.94;39.77
4570;BME280;2297;51.442;6.996;2023-02-28T07:07:36;101752.41;;;1.92;39.78
4570;BME280;2297;51.442;6.996;2023-02-28T07:10:06;101757.72;;;1.95;39.86
4570;BME280;2297;51.442;6.996;2023-02-28T07:12:33;101763.88;;;1.97;39.39
4570;BME280;2297;51.442;6.996;2023-02-28T07:15:01;101760.50;;;2.00;40.12
4570;BME280;2297;51.442;6.996;2023-02-28T07:17:28;101773.25;;;1.92;40.15
4570;BME280;2297;51.442;6.996;2023-02-28T07:19:54;101764.00;;;2.00;39.91
4570;BME280;2297;51.442;6.996;2023-02-28T07:22:21;101761.75;;;2.09;39.25
4570;BME280;2297;51.442;6.996;2023-02-28T07:24:48;101770.13;;;2.02;39.74
4570;BME280;2297;51.442;6.996;2023-02-28T07:27:15;101772.13;;;2.08;39.37
4570;BME280;2297;51.442;6.996;2023-02-28T07:29:48;101769.66;;;2.12;39.01
4570;BME280;2297;51.442;6.996;2023-02-28T07:32:17;101775.84;;;2.14;39.24
4570;BME280;2297;51.442;6.996;2023-02-28T07:34:43;101770.66;;;2.16;39.51
4570;BME280;2297;51.442;6.996;2023-02-28T07:37:10;101779.59;;;2.23;39.39
4570;BME280;2297;51.442;6.996;2023-02-28T07:39:37;101775.84;;;2.14;39.58
4570;BME280;2297;51.442;6.996;2023-02-28T07:42:04;101776.94;;;2.21;39.48
4570;BME280;2297;51.442;6.996;2023-02-28T07:44:31;101774.50;;;2.26;38.87
4570;BME280;2297;51.442;6.996;2023-02-28T07:46:58;101774.00;;;2.36;38.34
4570;BME280;2297;51.442;6.996;2023-02-28T07:49:26;101772.75;;;2.49;38.12
4570;BME280;2297;51.442;6.996;2023-02-28T07:51:52;101780.50;;;2.47;38.02
4570;BME280;2297;51.442;6.996;2023-02-28T07:54:19;101775.28;;;2.47;37.24
4570;BME280;2297;51.442;6.996;2023-02-28T07:56:45;101775.16;;;2.44;38.37
4570;BME280;2297;51.442;6.996;2023-02-28T07:59:12;101774.06;;;2.38;38.22
4570;BME280;2297;51.442;6.996;2023-02-28T08:01:39;101785.25;;;2.59;37.26
4570;BME280;2297;51.442;6.996;2023-02-28T08:04:05;101777.38;;;2.58;38.45
4570;BME280;2297;51.442;6.996;2023-02-28T08:06:33;101787.22;;;2.65;37.79
4570;BME280;2297;51.442;6.996;2023-02-28T08:09:00;101792.38;;;2.63;37.89
4570;BME280;2297;51.442;6.996;2023-02-28T08:11:27;101788.25;;;2.70;37.01
4570;BME280;2297;51.442;6.996;2023-02-28T08:13:54;101797.75;;;2.68;37.21
4570;BME280;2297;51.442;6.996;2023-02-28T08:16:21;101794.31;;;2.69;37.43
4570;BME280;2297;51.442;6.996;2023-02-28T08:18:49;101792.13;;;2.81;36.92
4570;BME280;2297;51.442;6.996;2023-02-28T08:21:16;101793.81;;;2.79;37.98
4570;BME280;2297;51.442;6.996;2023-02-28T08:23:46;101791.56;;;2.90;37.08
4570;BME280;2297;51.442;6.996;2023-02-28T08:26:12;101789.00;;;2.92;36.68
4570;BME280;2297;51.442;6.996;2023-02-28T08:28:39;101792.63;;;2.95;36.61
4570;BME280;2297;51.442;6.996;2023-02-28T08:31:10;101792.97;;;3.06;36.05
4570;BME280;2297;51.442;6.996;2023-02-28T08:33:37;101790.34;;;3.06;36.67
4570;BME280;2297;51.442;6.996;2023-02-28T08:36:05;101798.41;;;3.12;36.68
4570;BME280;2297;51.442;6.996;2023-02-28T08:38:31;101788.47;;;3.02;38.01
4570;BME280;2297;51.442;6.996;2023-02-28T08:41:01;101786.97;;;3.09;37.36
4570;BME280;2297;51.442;6.996;2023-02-28T08:43:27;101784.34;;;3.09;36.85
4570;BME280;2297;51.442;6.996;2023-02-28T08:45:55;101791.41;;;3.11;36.38
4570;BME280;2297;51.442;6.996;2023-02-28T08:48:22;101787.38;;;3.21;36.32
4570;BME280;2297;51.442;6.996;2023-02-28T08:50:55;101782.31;;;3.26;35.89
4570;BME280;2297;51.442;6.996;2023-02-28T08:53:22;101774.56;;;3.29;35.47
4570;BME280;2297;51.442;6.996;2023-02-28T08:55:55;101777.56;;;3.41;35.44
4570;BME280;2297;51.442;6.996;2023-02-28T08:58:24;101777.91;;;3.52;35.03
4570;BME280;2297;51.442;6.996;2023-02-28T09:00:50;101782.53;;;3.61;34.95
4570;BME280;2297;51.442;6.996;2023-02-28T09:03:17;101781.00;;;3.68;34.76
4570;BME280;2297;51.442;6.996;2023-02-28T09:05:52;101779.56;;;3.77;34.50
4570;BME280;2297;51.442;6.996;2023-02-28T09:08:18;101779.81;;;3.85;34.42
4570;BME280;2297;51.442;6.996;2023-02-28T09:10:45;101777.53;;;3.96;34.05
4570;BME280;2297;51.442;6.996;2023-02-28T09:13:12;101768.81;;;3.95;33.90
4570;BME280;2297;51.442;6.996;2023-02-28T09:15:40;101770.91;;;4.07;33.94
4570;BME280;2297;51.442;6.996;2023-02-28T09:18:07;101771.13;;;4.15;33.27
4570;BME280;2297;51.442;6.996;2023-02-28T09:20:33;101765.97;;;4.18;33.54
4570;BME280;2297;51.442;6.996;2023-02-28T09:23:00;101770.47;;;4.24;33.40
4570;BME280;2297;51.442;6.996;2023-02-28T09:25:27;101772.38;;;4.28;33.19
4570;BME280;2297;51.442;6.996;2023-02-28T09:27:53;101769.78;;;4.29;32.94
4570;BME280;2297;51.442;6.996;2023-02-28T09:30:20;101767.34;;;4.36;32.94
4570;BME280;2297;51.442;6.996;2023-02-28T09:32:48;101777.19;;;4.44;32.91
4570;BME280;2297;51.442;6.996;2023-02-28T09:35:17;101772.88;;;4.46;32.63
4570;BME280;2297;51.442;6.996;2023-02-28T09:37:44;101771.47;;;4.27;32.35
4570;BME280;2297;51.442;6.996;2023-02-28T09:40:12;101765.50;;;4.33;31.83
4570;BME280;2297;51.442;6.996;2023-02-28T09:42:40;101772.44;;;4.31;31.08
4570;BME280;2297;51.442;6.996;2023-02-28T09:45:16;101763.53;;;4.24;31.02
4570;BME280;2297;51.442;6.996;2023-02-28T09:47:48;101775.50;;;4.46;30.87
4570;BME280;2297;51.442;6.996;2023-02-28T09:50:28;101773.22;;;4.59;30.59
4570;BME280;2297;51.442;6.996;2023-02-28T09:52:59;101761.91;;;4.60;30.38
4570;BME280;2297;51.442;6.996;2023-02-28T09:55:30;101769.63;;;4.55;29.98
4570;BME280;2297;51.442;6.996;2023-02-28T09:58:00;101764.41;;;4.57;29.99
4570;BME280;2297;51.442;6.996;2023-02-28T10:00:31;101764.59;;;4.63;29.75
4570;BME280;2297;51.442;6.996;2023-02-28T10:03:06;101766.75;;;4.79;29.54
4570;BME280;2297;51.442;6.996;2023-02-28T10:05:41;101766.44;;;4.67;28.68
4570;BME280;2297;51.442;6.996;2023-02-28T10:08:21;101758.09;;;4.82;28.55
4570;BME280;2297;51.442;6.996;2023-02-28T10:10:53;101752.34;;;4.95;28.83
4570;BME280;2297;51.442;6.996;2023-02-28T10:13:25;101759.44;;;5.00;28.83
4570;BME280;2297;51.442;6.996;2023-02-28T10:15:57;101757.00;;;5.07;28.55
4570;BME280;2297;51.442;6.996;2023-02-28T10:18:30;101751.13;;;5.16;28.51
4570;BME280;2297;51.442;6.996;2023-02-28T10:20:57;101749.06;;;5.39;28.43
4570;BME280;2297;51.442;6.996;2023-02-28T10:23:28;101758.97;;;5.53;28.32
4570;BME280;2297;51.442;6.996;2023-02-28T10:26:00;101747.75;;;5.60;27.69
4570;BME280;2297;51.442;6.996;2023-02-28T10:28:29;101745.69;;;5.83;27.95
4570;BME280;2297;51.442;6.996;2023-02-28T10:30:56;101756.22;;;5.85;27.58
4570;BME280;2297;51.442;6.996;2023-02-28T10:33:29;101754.69;;;5.96;27.44
4570;BME280;2297;51.442;6.996;2023-02-28T10:35:57;101746.84;;;5.97;27.61
4570;BME280;2297;51.442;6.996;2023-02-28T10:38:26;101740.53;;;5.88;27.45
4570;BME280;2297;51.442;6.996;2023-02-28T10:41:14;101747.53;;;5.87;27.59
4570;BME280;2297;51.442;6.996;2023-02-28T10:43:43;101743.03;;;5.81;27.73
4570;BME280;2297;51.442;6.996;2023-02-28T10:46:13;101743.31;;;5.94;27.82
4570;BME280;2297;51.442;6.996;2023-02-28T10:49:01;101732.66;;;5.88;27.68
4570;BME280;2297;51.442;6.996;2023-02-28T10:51:35;101741.38;;;5.87;27.67
4570;BME280;2297;51.442;6.996;2023-02-28T10:54:03;101749.88;;;5.75;27.84
4570;BME280;2297;51.442;6.996;2023-02-28T10:56:31;101729.06;;;5.82;27.77
4570;BME280;2297;51.442;6.996;2023-02-28T10:59:00;101728.44;;;5.94;27.49
4570;BME280;2297;51.442;6.996;2023-02-28T11:01:39;101727.00;;;6.09;27.44
4570;BME280;2297;51.442;6.996;2023-02-28T11:04:35;101722.03;;;5.81;27.00
4570;BME280;2297;51.442;6.996;2023-02-28T11:07:09;101719.53;;;5.86;26.76
4570;BME280;2297;51.442;6.996;2023-02-28T11:09:45;101725.75;;;5.90;26.71
4570;BME280;2297;51.442;6.996;2023-02-28T11:12:20;101733.88;;;5.64;26.32
4570;BME280;2297;51.442;6.996;2023-02-28T11:14:51;101729.69;;;5.71;26.45
4570;BME280;2297;51.442;6.996;2023-02-28T11:17:20;101735.75;;;5.68;26.50
4570;BME280;2297;51.442;6.996;2023-02-28T11:19:51;101729.28;;;5.93;26.52
4570;BME280;2297;51.442;6.996;2023-02-28T11:22:21;101724.41;;;6.12;26.37
4570;BME280;2297;51.442;6.996;2023-02-28T11:24:51;101727.50;;;6.34;26.35
4570;BME280;2297;51.442;6.996;2023-02-28T11:27:42;101724.44;;;6.58;26.20
4570;BME280;2297;51.442;6.996;2023-02-28T11:30:31;101735.06;;;6.64;26.19
4570;BME280;2297;51.442;6.996;2023-02-28T11:32:58;101723.66;;;6.65;26.05
4570;BME280;2297;51.442;6.996;2023-02-28T11:35:30;101723.59;;;6.60;25.72
4570;BME280;2297;51.442;6.996;2023-02-28T11:38:00;101716.94;;;6.32;26.12
4570;BME280;2297;51.442;6.996;2023-02-28T11:40:34;101723.44;;;6.51;25.95
4570;BME280;2297;51.442;6.996;2023-02-28T11:43:16;101723.66;;;6.65;25.88
4570;BME280;2297;51.442;6.996;2023-02-28T11:45:54;101719.97;;;6.54;25.71
4570;BME280;2297;51.442;6.996;2023-02-28T11:48:31;101723.09;;;6.34;26.10
4570;BME280;2297;51.442;6.996;2023-02-28T11:51:06;101721.75;;;6.55;26.22
4570;BME280;2297;51.442;6.996;2023-02-28T11:56:42;101717.72;;;6.75;25.95
4570;BME280;2297;51.442;6.996;2023-02-28T11:59:34;101719.81;;;6.95;25.95
4570;BME280;2297;51.442;6.996;2023-02-28T12:02:22;101710.13;;;6.92;26.06
4570;BME280;2297;51.442;6.996;2023-02-28T12:04:58;101703.44;;;7.11;25.86
4570;BME280;2297;51.442;6.996;2023-02-28T12:07:37;101701.44;;;7.52;25.87
4570;BME280;2297;51.442;6.996;2023-02-28T12:10:13;101694.63;;;7.66;25.15
4570;BME280;2297;51.442;6.996;2023-02-28T12:12:52;101683.63;;;7.98;25.37
4570;BME280;2297;51.442;6.996;2023-02-28T12:15:43;101689.81;;;8.03;24.87
4570;BME280;2297;51.442;6.996;2023-02-28T12:18:33;101685.53;;;8.11;24.52
4570;BME280;2297;51.442;6.996;2023-02-28T12:21:11;101688.19;;;8.14;24.79
4570;BME280;2297;51.442;6.996;2023-02-28T12:23:56;101683.66;;;8.04;24.65
4570;BME280;2297;51.442;6.996;2023-02-28T12:26:32;101681.19;;;8.17;24.76
4570;BME280;2297;51.442;6.996;2023-02-28T12:29:04;101677.47;;;7.97;24.65
4570;BME280;2297;51.442;6.996;2023-02-28T12:31:37;101664.59;;;8.24;24.76
4570;BME280;2297;51.442;6.996;2023-02-28T12:34:11;101659.44;;;8.33;24.58
4570;BME280;2297;51.442;6.996;2023-02-28T12:36:39;101663.34;;;8.72;24.73
4570;BME280;2297;51.442;6.996;2023-02-28T12:39:12;101656.44;;;8.90;23.69
4570;BME280;2297;51.442;6.996;2023-02-28T12:41:45;101656.63;;;9.18;23.51
4570;BME280;2297;51.442;6.996;2023-02-28T12:44:17;101651.31;;;9.13;23.81
4570;BME280;2297;51.442;6.996;2023-02-28T12:46:49;101647.00;;;9.26;23.49
4570;BME280;2297;51.442;6.996;2023-02-28T12:49:23;101656.69;;;9.30;23.54
4570;BME280;2297;51.442;6.996;2023-02-28T12:51:52;101647.00;;;9.23;23.86
4570;BME280;2297;51.442;6.996;2023-02-28T12:54:24;101642.47;;;9.00;23.79
4570;BME280;2297;51.442;6.996;2023-02-28T12:56:58;101645.00;;;8.86;24.30
4570;BME280;2297;51.442;6.996;2023-02-28T12:59:33;101635.44;;;8.99;24.23
4570;BME280;2297;51.442;6.996;2023-02-28T13:02:21;101624.81;;;8.90;23.99
4570;BME280;2297;51.442;6.996;2023-02-28T13:05:15;101633.72;;;9.04;24.23
4570;BME280;2297;51.442;6.996;2023-02-28T13:08:07;101617.06;;;9.11;24.08
4570;BME280;2297;51.442;6.996;2023-02-28T13:10:43;101617.06;;;9.13;24.15
4570;BME280;2297;51.442;6.996;2023-02-28T13:13:19;101620.53;;;9.04;23.79
4570;BME280;2297;51.442;6.996;2023-02-28T13:16:02;101617.91;;;9.04;24.23
4570;BME280;2297;51.442;6.996;2023-02-28T13:18:35;101622.38;;;9.24;24.24
4570;BME280;2297;51.442;6.996;2023-02-28T13:21:06;101615.34;;;9.20;23.94
4570;BME280;2297;51.442;6.996;2023-02-28T13:23:40;101607.50;;;9.32;24.00
4570;BME280;2297;51.442;6.996;2023-02-28T13:26:08;101608.31;;;9.22;24.54
4570;BME280;2297;51.442;6.996;2023-02-28T13:29:20;101605.78;;;9.37;23.97
4570;BME280;2297;51.442;6.996;2023-02-28T13:35:12;101610.22;;;9.54;24.16
4570;BME280;2297;51.442;6.996;2023-02-28T13:37:45;101601.47;;;9.69;23.80
4570;BME280;2297;51.442;6.996;2023-02-28T13:40:30;101607.69;;;9.85;23.79
4570;BME280;2297;51.442;6.996;2023-02-28T13:43:07;101601.53;;;9.82;24.01
4570;BME280;2297;51.442;6.996;2023-02-28T13:45:34;101593.69;;;10.17;23.89
4570;BME280;2297;51.442;6.996;2023-02-28T13:48:04;101594.56;;;9.94;23.72
4570;BME280;2297;51.442;6.996;2023-02-28T13:50:34;101591.09;;;10.37;23.56
4570;BME280;2297;51.442;6.996;2023-02-28T13:53:40;101588.44;;;10.35;23.81